Time;durP1;ratioP1;P1;durP2;ratioP2;P2;SDS_P1;SDS_P2;PMS_P1;PMS_P2;Temp;Humidity;BMP_temperature;BMP_pressure;BME280_temperature;BME280_humidity;BME280_pressure;Samples;Min_cycle;Max_cycle;Signal;HPM_P1;HPM_P2
2023/09/05 00:00:32;;;;;;;;;;;;;;;20.70;46.75;100383.81;1084240;47;19954;-79
2023/09/05 00:01:33;;;;;;;;;;;;;;;20.66;46.58;100386.13;1083896;47;19970;-79
2023/09/05 00:02:33;;;;;;;;;;;;;;;20.70;46.89;100381.09;1084253;47;20678;-79
2023/09/05 00:03:36;;;;;;;;;;;;;;;20.72;46.74;100379.84;1084123;47;19958;-79
2023/09/05 00:04:38;;;;;;;;;;;;;;;20.70;46.66;100381.94;1084571;47;19947;-80
2023/09/05 00:05:42;;;;;;;;;;;;;;;20.68;46.92;100375.03;1084075;47;19955;-80
2023/09/05 00:06:42;;;;;;;;;;;;;;;20.63;47.10;100386.50;1084241;47;19954;-79
2023/09/05 00:07:48;;;;;;;;;;;;;;;20.53;47.20;100377.91;1084716;39;20336;-79
2023/09/05 00:08:49;;;;;;;;;;;;;;;20.45;47.57;100375.34;1085117;47;19981;-79
2023/09/05 00:09:50;;;;;;;;;;;;;;;20.45;47.78;100381.63;1085035;54;19957;-81
2023/09/05 00:10:53;;;;;;;;;;;;;;;20.45;47.25;100381.63;1083948;47;20065;-79
2023/09/05 00:11:54;;;;;;;;;;;;;;;20.40;47.65;100384.13;1083691;54;19950;-79
2023/09/05 00:12:57;;;;;;;;;;;;;;;20.42;47.35;100377.44;1083098;46;19993;-79
2023/09/05 00:14:00;;;;;;;;;;;;;;;20.46;47.42;100377.88;1084493;47;19974;-80
2023/09/05 00:15:04;;;;;;;;;;;;;;;20.46;47.27;100377.88;1084697;47;19951;-79
2023/09/05 00:16:04;;;;;;;;;;;;;;;20.48;47.32;100364.94;1082883;54;19975;-79
2023/09/05 00:17:08;;;;;;;;;;;;;;;20.47;47.43;100376.00;1083333;47;20003;-79
2023/09/05 00:18:08;;;;;;;;;;;;;;;20.48;47.47;100374.97;1083804;47;19974;-80
2023/09/05 00:19:12;;;;;;;;;;;;;;;20.41;47.48;100380.34;1083820;47;19975;-80
2023/09/05 00:20:15;;;;;;;;;;;;;;;20.36;47.53;100371.97;1084734;54;19974;-79
2023/09/05 00:21:18;;;;;;;;;;;;;;;20.34;47.83;100374.06;1085975;47;19974;-79
2023/09/05 00:22:19;;;;;;;;;;;;;;;20.36;47.77;100378.25;1085413;47;20222;-79
2023/09/05 00:23:26;;;;;;;;;;;;;;;20.32;47.79;100376.13;1085028;47;19947;-80
2023/09/05 00:24:28;;;;;;;;;;;;;;;20.33;47.86;100375.94;1085474;54;19974;-78
2023/09/05 00:25:32;;;;;;;;;;;;;;;20.35;47.98;100371.16;1086123;54;19998;-79
2023/09/05 00:26:33;;;;;;;;;;;;;;;20.29;47.66;100373.81;1085560;47;19950;-79
2023/09/05 00:27:39;;;;;;;;;;;;;;;20.28;47.79;100375.72;1085655;47;19974;-79
2023/09/05 00:28:41;;;;;;;;;;;;;;;20.22;48.36;100377.34;1086314;46;19973;-80
2023/09/05 00:29:45;;;;;;;;;;;;;;;20.29;47.93;100374.66;1085078;54;19953;-80
2023/09/05 00:30:45;;;;;;;;;;;;;;;20.24;48.03;100380.69;1083858;54;19958;-80
2023/09/05 00:31:46;;;;;;;;;;;;;;;20.21;48.12;100372.94;1083970;47;19950;-80
2023/09/05 00:32:50;;;;;;;;;;;;;;;20.19;48.41;100371.47;1083756;54;19978;-79
2023/09/05 00:33:50;;;;;;;;;;;;;;;20.22;48.18;100374.63;1084809;39;20401;-79
2023/09/05 00:34:54;;;;;;;;;;;;;;;20.19;48.34;100377.72;1084418;47;19958;-81
2023/09/05 00:35:54;;;;;;;;;;;;;;;20.21;48.03;100375.66;1084248;54;19973;-80
2023/09/05 00:36:55;;;;;;;;;;;;;;;20.23;48.11;100375.44;1085063;54;19982;-80
2023/09/05 00:37:59;;;;;;;;;;;;;;;20.25;47.95;100376.94;1083876;47;20497;-80
2023/09/05 00:39:02;;;;;;;;;;;;;;;20.24;48.18;100379.84;1084944;54;19990;-79
2023/09/05 00:40:06;;;;;;;;;;;;;;;20.18;48.37;100378.78;1085404;47;19947;-80
2023/09/05 00:41:07;;;;;;;;;;;;;;;20.15;48.52;100372.91;1084781;47;19946;-80
2023/09/05 00:42:13;;;;;;;;;;;;;;;20.17;48.48;100374.38;1083392;54;20837;-80
2023/09/05 00:43:14;;;;;;;;;;;;;;;20.19;48.15;100368.78;1083151;47;19946;-80
2023/09/05 00:44:17;;;;;;;;;;;;;;;20.16;48.73;100377.31;1083576;47;19946;-81
2023/09/05 00:45:19;;;;;;;;;;;;;;;20.10;48.35;100377.06;1084225;47;19981;-80
2023/09/05 00:46:19;;;;;;;;;;;;;;;20.06;48.80;100367.66;1085943;47;19951;-80
2023/09/05 00:47:30;;;;;;;;;;;;;;;20.01;48.82;100370.13;1084000;53;19973;-80
2023/09/05 00:48:32;;;;;;;;;;;;;;;20.02;48.70;100374.53;1084493;54;19947;-80
2023/09/05 00:49:39;;;;;;;;;;;;;;;20.02;48.84;100365.53;1083856;47;20304;-80
2023/09/05 00:50:40;;;;;;;;;;;;;;;20.03;49.25;100369.91;1083967;54;19957;-80
2023/09/05 00:51:45;;;;;;;;;;;;;;;20.02;49.45;100366.38;1084142;47;19971;-81
2023/09/05 00:52:46;;;;;;;;;;;;;;;20.01;49.07;100364.72;1085383;54;19950;-80
2023/09/05 00:53:49;;;;;;;;;;;;;;;19.98;49.40;100361.56;1084432;47;19994;-80
2023/09/05 00:54:53;;;;;;;;;;;;;;;19.98;49.05;100367.81;1084249;54;20002;-80
2023/09/05 00:55:56;;;;;;;;;;;;;;;19.96;49.26;100369.88;1084075;47;19951;-80
2023/09/05 00:56:57;;;;;;;;;;;;;;;19.94;49.53;100358.38;1085655;47;20088;-79
2023/09/05 00:58:00;;;;;;;;;;;;;;;19.93;49.27;100373.00;1084596;47;19972;-79
2023/09/05 00:59:01;;;;;;;;;;;;;;;19.92;49.45;100374.03;1083039;47;20058;-80
2023/09/05 01:00:05;;;;;;;;;;;;;;;19.90;49.41;100368.78;1083596;47;19946;-80
2023/09/05 01:01:08;;;;;;;;;;;;;;;19.87;49.52;100368.34;1083745;47;19946;-79
2023/09/05 01:02:09;;;;;;;;;;;;;;;19.84;49.59;100371.44;1082702;47;19975;-79
2023/09/05 01:03:12;;;;;;;;;;;;;;;19.80;49.88;100366.41;1082191;54;19958;-79
2023/09/05 01:04:13;;;;;;;;;;;;;;;19.74;49.89;100375.31;1083642;47;19950;-79
2023/09/05 01:05:16;;;;;;;;;;;;;;;19.73;49.90;100370.97;1083986;47;19970;-79
2023/09/05 01:06:22;;;;;;;;;;;;;;;19.78;49.79;100375.78;1083981;47;19970;-78
2023/09/05 01:07:30;;;;;;;;;;;;;;;19.82;49.53;100368.09;1084326;47;19958;-79
2023/09/05 01:08:35;;;;;;;;;;;;;;;19.84;49.71;100375.00;1083642;46;19950;-78
2023/09/05 01:09:37;;;;;;;;;;;;;;;19.83;49.27;100373.31;1083058;47;19950;-79
2023/09/05 01:10:46;;;;;;;;;;;;;;;19.84;49.56;100376.88;1082961;54;20491;-79
2023/09/05 01:11:47;;;;;;;;;;;;;;;19.89;49.64;100380.69;1083215;47;19970;-80
2023/09/05 01:12:48;;;;;;;;;;;;;;;19.90;49.33;100378.81;1082131;39;20690;-78
2023/09/05 01:13:52;;;;;;;;;;;;;;;19.91;49.61;100380.50;1082483;46;19977;-79
2023/09/05 01:14:53;;;;;;;;;;;;;;;19.93;49.40;100373.00;1082318;47;19957;-78
2023/09/05 01:15:56;;;;;;;;;;;;;;;19.91;50.02;100375.06;1082632;47;19951;-79
2023/09/05 01:17:01;;;;;;;;;;;;;;;19.92;49.36;100374.03;1082699;51;19971;-79
2023/09/05 01:18:04;;;;;;;;;;;;;;;19.93;49.22;100375.72;1082854;54;19958;-79
2023/09/05 01:19:05;;;;;;;;;;;;;;;19.92;49.41;100371.31;1082556;47;19946;-79
2023/09/05 01:20:09;;;;;;;;;;;;;;;19.94;49.52;100369.22;1082598;54;19994;-79
2023/09/05 01:21:14;;;;;;;;;;;;;;;19.97;49.51;100368.00;1082411;47;19955;-79
2023/09/05 01:22:21;;;;;;;;;;;;;;;19.96;49.62;100372.59;1082952;54;19946;-79
2023/09/05 01:23:24;;;;;;;;;;;;;;;19.96;49.32;100369.88;1083653;47;19970;-79
2023/09/05 01:24:30;;;;;;;;;;;;;;;19.90;49.80;100374.22;1085755;47;19951;-79
2023/09/05 01:25:31;;;;;;;;;;;;;;;19.89;49.59;100369.00;1085687;47;19975;-79
2023/09/05 01:26:32;;;;;;;;;;;;;;;19.82;49.92;100368.09;1085245;47;19951;-79
2023/09/05 01:27:35;;;;;;;;;;;;;;;19.82;49.47;100366.19;1083633;47;19954;-80
2023/09/05 01:28:41;;;;;;;;;;;;;;;19.75;50.05;100368.88;1083288;39;20338;-79
2023/09/05 01:29:42;;;;;;;;;;;;;;;19.69;49.88;100377.78;1084314;54;19947;-79
2023/09/05 01:30:45;;;;;;;;;;;;;;;19.67;50.23;100374.44;1085216;47;19950;-81
2023/09/05 01:31:46;;;;;;;;;;;;;;;19.65;49.99;100384.63;1085420;47;19957;-80
2023/09/05 01:32:49;;;;;;;;;;;;;;;19.71;49.65;100377.59;1085214;47;20520;-82
2023/09/05 01:33:50;;;;;;;;;;;;;;;19.71;49.80;100380.31;1084487;54;19971;-80
2023/09/05 01:34:54;;;;;;;;;;;;;;;19.73;49.82;100376.38;1083488;54;19972;-80
2023/09/05 01:35:55;;;;;;;;;;;;;;;19.67;49.84;100385.28;1084688;39;20342;-80
2023/09/05 01:36:56;;;;;;;;;;;;;;;19.71;49.58;100378.44;1084356;47;19947;-80
2023/09/05 01:37:59;;;;;;;;;;;;;;;19.73;50.06;100380.94;1085423;39;20461;-80
2023/09/05 01:38:59;;;;;;;;;;;;;;;19.68;49.60;100375.28;1084468;47;19947;-80
2023/09/05 01:40:07;;;;;;;;;;;;;;;19.67;50.24;100379.03;1084773;54;19950;-81
2023/09/05 01:41:07;;;;;;;;;;;;;;;19.63;50.10;100384.84;1083960;54;20489;-80
2023/09/05 01:42:11;;;;;;;;;;;;;;;19.51;50.14;100380.16;1084008;54;19975;-80
2023/09/05 01:43:11;;;;;;;;;;;;;;;19.48;50.39;100378.69;1083954;39;20860;-81
2023/09/05 01:44:15;;;;;;;;;;;;;;;19.48;50.54;100379.50;1083474;47;19958;-80
2023/09/05 01:45:15;;;;;;;;;;;;;;;19.37;50.42;100380.03;1083724;47;19951;-79
2023/09/05 01:46:19;;;;;;;;;;;;;;;19.33;50.65;100374.16;1084329;39;20827;-79
2023/09/05 01:47:19;;;;;;;;;;;;;;;19.30;50.49;100380.00;1083637;47;19947;-79
2023/09/05 01:48:22;;;;;;;;;;;;;;;19.32;50.58;100382.50;1083213;54;20429;-79
2023/09/05 01:49:23;;;;;;;;;;;;;;;19.33;50.56;100373.34;1083163;51;19971;-79
2023/09/05 01:50:26;;;;;;;;;;;;;;;19.29;50.69;100372.03;1081676;47;19958;-79
2023/09/05 01:51:27;;;;;;;;;;;;;;;19.30;50.57;100369.16;1081789;47;19950;-79
2023/09/05 01:52:28;;;;;;;;;;;;;;;19.30;50.38;100363.72;1082355;47;20009;-79
2023/09/05 01:53:31;;;;;;;;;;;;;;;19.26;50.39;100367.03;1082539;53;19947;-79
2023/09/05 01:54:31;;;;;;;;;;;;;;;19.25;50.73;100365.34;1082749;54;19994;-78
2023/09/05 01:55:38;;;;;;;;;;;;;;;19.24;50.85;100364.47;1082315;47;20720;-79
2023/09/05 01:56:39;;;;;;;;;;;;;;;19.25;50.65;100365.34;1082905;52;19946;-79
2023/09/05 01:57:42;;;;;;;;;;;;;;;19.25;50.76;100365.34;1084346;47;19973;-80
2023/09/05 01:58:43;;;;;;;;;;;;;;;19.26;50.76;100361.59;1084230;47;19962;-80
2023/09/05 01:59:46;;;;;;;;;;;;;;;19.25;50.50;100359.91;1083357;47;19953;-80
2023/09/05 02:00:47;;;;;;;;;;;;;;;19.26;50.52;100358.88;1083265;47;19946;-80
2023/09/05 02:01:50;;;;;;;;;;;;;;;19.21;50.36;100366.75;1087280;31;20557;-80
2023/09/05 02:02:51;;;;;;;;;;;;;;;19.25;50.36;100358.03;1083973;51;19975;-80
2023/09/05 02:03:54;;;;;;;;;;;;;;;19.25;50.50;100365.34;1083878;54;19955;-80
2023/09/05 02:04:54;;;;;;;;;;;;;;;19.28;50.13;100360.38;1084289;54;19998;-80
2023/09/05 02:05:58;;;;;;;;;;;;;;;19.35;50.15;100363.13;1083867;47;19947;-80
2023/09/05 02:06:58;;;;;;;;;;;;;;;19.39;49.88;100361.69;1084101;47;19962;-81
2023/09/05 02:08:01;;;;;;;;;;;;;;;19.39;50.17;100363.59;1084218;47;20517;-80
2023/09/05 02:09:02;;;;;;;;;;;;;;;19.40;50.01;100366.09;1084634;39;20371;-80
2023/09/05 02:10:06;;;;;;;;;;;;;;;19.45;49.89;100360.94;1084501;47;19950;-80
2023/09/05 02:11:09;;;;;;;;;;;;;;;19.47;49.60;100358.03;1085604;54;19970;-80
2023/09/05 02:12:14;;;;;;;;;;;;;;;19.49;49.87;100356.78;1086436;47;19949;-80
2023/09/05 02:13:16;;;;;;;;;;;;;;;19.52;49.85;100368.28;1086148;47;19975;-79
2023/09/05 02:14:20;;;;;;;;;;;;;;;19.54;49.66;100358.09;1086305;54;19975;-80
2023/09/05 02:15:20;;;;;;;;;;;;;;;19.54;49.62;100368.94;1086054;54;19951;-78
2023/09/05 02:16:24;;;;;;;;;;;;;;;19.53;49.44;100361.81;1086471;47;19980;-79
2023/09/05 02:17:25;;;;;;;;;;;;;;;19.47;49.88;100366.97;1086726;47;19946;-80
2023/09/05 02:18:28;;;;;;;;;;;;;;;19.45;49.71;100360.94;1085838;47;19942;-81
2023/09/05 02:19:29;;;;;;;;;;;;;;;19.43;49.92;100362.16;1084712;54;19968;-79
2023/09/05 02:20:34;;;;;;;;;;;;;;;19.39;49.96;100363.59;1086329;47;20705;-79
2023/09/05 02:21:34;;;;;;;;;;;;;;;19.36;50.16;100362.09;1086136;47;20051;-79
2023/09/05 02:22:37;;;;;;;;;;;;;;;19.35;49.97;100368.56;1086017;47;19962;-79
2023/09/05 02:23:38;;;;;;;;;;;;;;;19.29;50.19;100361.19;1086093;54;19942;-79
2023/09/05 02:24:39;;;;;;;;;;;;;;;19.27;50.23;100360.56;1086530;47;19976;-83
2023/09/05 02:25:45;;;;;;;;;;;;;;;19.23;50.27;100357.38;1086822;54;19939;-82
2023/09/05 02:26:48;;;;;;;;;;;;;;;19.19;50.26;100366.94;1087099;54;19943;-81
2023/09/05 02:27:49;;;;;;;;;;;;;;;19.21;50.66;100366.75;1086138;47;20765;-80
2023/09/05 02:28:52;;;;;;;;;;;;;;;19.29;50.22;100361.19;1085977;47;20503;-81
2023/09/05 02:29:56;;;;;;;;;;;;;;;19.28;50.27;100360.38;1086873;47;19942;-78
2023/09/05 02:30:59;;;;;;;;;;;;;;;19.26;50.48;100358.88;1086760;47;19953;-78
2023/09/05 02:32:00;;;;;;;;;;;;;;;19.30;50.17;100362.88;1086722;47;19943;-78
2023/09/05 02:33:03;;;;;;;;;;;;;;;19.23;50.49;100367.41;1086743;47;19994;-81
2023/09/05 02:34:04;;;;;;;;;;;;;;;19.24;50.55;100367.19;1086551;54;19977;-82
2023/09/05 02:35:08;;;;;;;;;;;;;;;19.24;50.62;100369.06;1087032;54;19942;-82
2023/09/05 02:36:10;;;;;;;;;;;;;;;19.28;50.48;100360.38;1087268;47;19943;-82
2023/09/05 02:37:14;;;;;;;;;;;;;;;19.27;50.61;100371.41;1087125;47;19943;-82
2023/09/05 02:38:15;;;;;;;;;;;;;;;19.28;50.46;100371.19;1087357;47;19994;-82
2023/09/05 02:39:20;;;;;;;;;;;;;;;19.30;50.25;100365.59;1087059;54;19949;-81
2023/09/05 02:40:21;;;;;;;;;;;;;;;19.21;50.89;100366.75;1086789;54;19949;-80
2023/09/05 02:41:24;;;;;;;;;;;;;;;19.12;51.24;100374.19;1086116;47;20699;-82
2023/09/05 02:42:29;;;;;;;;;;;;;;;19.01;51.05;100370.94;1085232;47;19972;-79
2023/09/05 02:43:32;;;;;;;;;;;;;;;18.94;51.54;100369.19;1085862;47;19969;-79
2023/09/05 02:44:33;;;;;;;;;;;;;;;18.84;51.66;100370.31;1084969;47;19946;-79
2023/09/05 02:45:36;;;;;;;;;;;;;;;18.84;52.02;100374.91;1081476;47;19947;-78
2023/09/05 02:46:37;;;;;;;;;;;;;;;18.83;52.21;100373.22;1081448;47;19972;-78
2023/09/05 02:47:37;;;;;;;;;;;;;;;18.80;51.94;100373.59;1081045;47;19979;-79
2023/09/05 02:48:41;;;;;;;;;;;;;;;18.79;52.13;100372.75;1083805;47;19953;-79
2023/09/05 02:49:42;;;;;;;;;;;;;;;18.74;52.13;100368.94;1084379;47;19947;-80
2023/09/05 02:50:42;;;;;;;;;;;;;;;18.70;52.05;100379.31;1083757;47;19967;-78
2023/09/05 02:51:46;;;;;;;;;;;;;;;18.67;52.43;100368.88;1082427;39;20741;-79
2023/09/05 02:52:46;;;;;;;;;;;;;;;18.68;52.53;100375.97;1081704;54;19987;-79
2023/09/05 02:53:50;;;;;;;;;;;;;;;18.66;52.35;100372.59;1082285;47;19965;-79
2023/09/05 02:54:50;;;;;;;;;;;;;;;18.67;52.14;100364.28;1082303;47;20545;-79
2023/09/05 02:55:53;;;;;;;;;;;;;;;18.62;52.30;100376.69;1082200;47;20069;-79
2023/09/05 02:56:55;;;;;;;;;;;;;;;18.62;52.37;100376.69;1082787;39;20343;-79
2023/09/05 02:58:00;;;;;;;;;;;;;;;18.63;52.42;100372.97;1082468;47;19953;-79
2023/09/05 02:59:01;;;;;;;;;;;;;;;18.62;52.44;100376.69;1082226;47;19950;-79
2023/09/05 03:00:06;;;;;;;;;;;;;;;18.60;52.62;100373.38;1082147;54;19954;-79
2023/09/05 03:01:10;;;;;;;;;;;;;;;18.60;52.88;100376.91;1082386;47;19951;-79
2023/09/05 03:02:13;;;;;;;;;;;;;;;18.58;52.88;100373.53;1082349;47;20006;-79
2023/09/05 03:03:14;;;;;;;;;;;;;;;18.59;53.07;100383.34;1082160;47;19971;-80
2023/09/05 03:04:17;;;;;;;;;;;;;;;18.61;52.82;100375.06;1082198;54;19958;-79
2023/09/05 03:05:17;;;;;;;;;;;;;;;18.58;52.60;100378.13;1082260;47;19972;-79
2023/09/05 03:06:21;;;;;;;;;;;;;;;18.60;52.86;100374.19;1082406;54;19962;-79
2023/09/05 03:07:22;;;;;;;;;;;;;;;18.57;52.71;100377.28;1082251;47;19946;-79
2023/09/05 03:08:25;;;;;;;;;;;;;;;18.54;52.88;100375.78;1082123;54;19994;-79
2023/09/05 03:09:26;;;;;;;;;;;;;;;18.59;52.88;100383.34;1082003;47;20050;-79
2023/09/05 03:10:26;;;;;;;;;;;;;;;18.60;53.11;100381.50;1082620;39;20406;-79
2023/09/05 03:11:29;;;;;;;;;;;;;;;18.59;52.84;100382.50;1082217;47;19947;-79
2023/09/05 03:12:30;;;;;;;;;;;;;;;18.67;52.89;100385.94;1082314;47;19971;-79
2023/09/05 03:13:36;;;;;;;;;;;;;;;18.63;52.93;100378.38;1082254;54;19977;-79
2023/09/05 03:14:37;;;;;;;;;;;;;;;18.60;52.89;100384.19;1082233;47;19950;-79
2023/09/05 03:15:40;;;;;;;;;;;;;;;18.61;53.11;100384.00;1082021;47;20762;-79
2023/09/05 03:16:41;;;;;;;;;;;;;;;18.69;53.04;100380.34;1082396;47;19975;-79
2023/09/05 03:17:41;;;;;;;;;;;;;;;18.64;52.93;100383.63;1081204;47;20002;-79
2023/09/05 03:18:45;;;;;;;;;;;;;;;18.66;53.05;100383.44;1081853;47;19947;-79
2023/09/05 03:19:45;;;;;;;;;;;;;;;18.65;53.40;100384.47;1082334;47;20758;-78
2023/09/05 03:20:49;;;;;;;;;;;;;;;18.70;53.14;100384.75;1082030;47;19995;-80
2023/09/05 03:21:50;;;;;;;;;;;;;;;18.74;53.06;100382.50;1082377;47;19946;-79
2023/09/05 03:22:53;;;;;;;;;;;;;;;18.71;52.80;100375.56;1082200;47;19963;-79
2023/09/05 03:23:55;;;;;;;;;;;;;;;18.71;53.21;100378.25;1082556;39;20366;-79
2023/09/05 03:24:58;;;;;;;;;;;;;;;18.64;53.52;100374.66;1082415;47;20058;-78
2023/09/05 03:25:58;;;;;;;;;;;;;;;18.59;53.89;100377.94;1082151;47;19946;-79
2023/09/05 03:27:01;;;;;;;;;;;;;;;18.55;54.18;100379.34;1082339;47;19962;-78
2023/09/05 03:28:03;;;;;;;;;;;;;;;18.56;53.63;100372.91;1082255;47;19946;-79
2023/09/05 03:29:09;;;;;;;;;;;;;;;18.58;53.85;100380.84;1082211;54;19947;-79
2023/09/05 03:30:10;;;;;;;;;;;;;;;18.58;53.58;100375.41;1082496;54;19951;-79
2023/09/05 03:31:13;;;;;;;;;;;;;;;18.54;54.07;100377.66;1082561;48;19957;-79
2023/09/05 03:32:14;;;;;;;;;;;;;;;18.52;54.03;100387.84;1082924;47;19981;-79
2023/09/05 03:33:14;;;;;;;;;;;;;;;18.59;53.34;100377.09;1083090;47;19958;-80
2023/09/05 03:34:18;;;;;;;;;;;;;;;18.59;53.78;100371.69;1082796;54;19951;-78
2023/09/05 03:35:18;;;;;;;;;;;;;;;18.63;53.58;100378.38;1083074;47;19950;-79
2023/09/05 03:36:25;;;;;;;;;;;;;;;18.64;53.36;100372.81;1083166;54;19998;-79
2023/09/05 03:37:28;;;;;;;;;;;;;;;18.70;53.21;100376.63;1083088;52;19958;-79
2023/09/05 03:38:29;;;;;;;;;;;;;;;18.71;53.34;100375.56;1082699;47;19973;-79
2023/09/05 03:39:33;;;;;;;;;;;;;;;18.71;53.59;100380.97;1082521;54;20612;-79
2023/09/05 03:40:34;;;;;;;;;;;;;;;18.69;53.82;100373.06;1082984;39;20684;-79
2023/09/05 03:41:38;;;;;;;;;;;;;;;18.61;53.49;100378.59;1082764;47;19954;-79
2023/09/05 03:42:38;;;;;;;;;;;;;;;18.52;54.47;100372.44;1084451;54;19975;-78
2023/09/05 03:43:41;;;;;;;;;;;;;;;18.44;54.29;100372.53;1082644;54;19986;-78
2023/09/05 03:44:44;;;;;;;;;;;;;;;18.36;54.60;100369.94;1082486;47;19946;-79
2023/09/05 03:45:49;;;;;;;;;;;;;;;18.31;54.44;100370.50;1082382;54;19947;-79
2023/09/05 03:46:49;;;;;;;;;;;;;;;18.23;54.63;100371.44;1082395;47;19983;-80
2023/09/05 03:47:53;;;;;;;;;;;;;;;18.18;55.12;100365.75;1082683;39;20402;-79
2023/09/05 03:48:55;;;;;;;;;;;;;;;18.09;55.27;100367.69;1082307;54;20464;-79
2023/09/05 03:49:58;;;;;;;;;;;;;;;18.09;55.39;100370.41;1082320;47;19965;-79
2023/09/05 03:50:59;;;;;;;;;;;;;;;18.00;55.60;100368.00;1082480;47;19974;-79
2023/09/05 03:52:02;;;;;;;;;;;;;;;18.00;55.47;100362.56;1082248;54;19993;-78
2023/09/05 03:53:03;;;;;;;;;;;;;;;18.00;55.45;100355.28;1082287;54;20793;-79
2023/09/05 03:54:03;;;;;;;;;;;;;;;18.00;55.79;100354.47;1082422;54;20041;-79
2023/09/05 03:55:07;;;;;;;;;;;;;;;18.05;55.47;100360.13;1084273;47;19971;-79
2023/09/05 03:56:08;;;;;;;;;;;;;;;17.98;55.84;100353.81;1083914;47;19946;-79
2023/09/05 03:57:11;;;;;;;;;;;;;;;17.97;55.59;100352.97;1082326;47;20029;-79
2023/09/05 03:58:12;;;;;;;;;;;;;;;17.94;56.17;100353.31;1082142;47;19974;-79
2023/09/05 03:59:17;;;;;;;;;;;;;;;17.96;55.75;100350.41;1082119;54;19975;-79
2023/09/05 04:00:20;;;;;;;;;;;;;;;17.99;55.71;100352.78;1082643;39;20460;-79
2023/09/05 04:01:24;;;;;;;;;;;;;;;17.98;55.89;100353.81;1082296;47;19955;-79
2023/09/05 04:02:25;;;;;;;;;;;;;;;17.96;55.94;100345.00;1082234;54;19958;-78
2023/09/05 04:03:28;;;;;;;;;;;;;;;17.97;55.68;100346.72;1082444;39;20748;-78
2023/09/05 04:04:28;;;;;;;;;;;;;;;17.98;55.91;100359.22;1081238;47;19970;-78
2023/09/05 04:05:29;;;;;;;;;;;;;;;18.00;55.73;100352.59;1082056;47;19997;-79
2023/09/05 04:06:32;;;;;;;;;;;;;;;18.06;55.61;100348.28;1082020;47;20445;-79
2023/09/05 04:07:33;;;;;;;;;;;;;;;18.12;55.67;100352.13;1082105;47;20450;-78
2023/09/05 04:08:37;;;;;;;;;;;;;;;18.18;55.45;100359.50;1082405;47;19955;-78
2023/09/05 04:09:37;;;;;;;;;;;;;;;18.21;55.34;100353.72;1082288;47;19982;-78
2023/09/05 04:10:42;;;;;;;;;;;;;;;18.27;55.13;100357.53;1082692;47;20037;-78
2023/09/05 04:11:42;;;;;;;;;;;;;;;18.26;54.99;100359.41;1081831;47;19954;-79
2023/09/05 04:12:45;;;;;;;;;;;;;;;18.28;55.15;100361.91;1081968;54;20056;-79
2023/09/05 04:13:46;;;;;;;;;;;;;;;18.31;55.21;100359.69;1082280;47;19985;-79
2023/09/05 04:14:47;;;;;;;;;;;;;;;18.30;55.13;100362.56;1082244;54;20529;-78
2023/09/05 04:15:53;;;;;;;;;;;;;;;18.27;55.39;100360.25;1082018;47;19946;-78
2023/09/05 04:16:54;;;;;;;;;;;;;;;18.19;55.83;100359.31;1081944;47;19947;-79
2023/09/05 04:17:57;;;;;;;;;;;;;;;18.21;55.49;100354.56;1081936;54;20014;-79
2023/09/05 04:18:57;;;;;;;;;;;;;;;18.12;56.04;100357.53;1082109;47;19946;-79
2023/09/05 04:20:01;;;;;;;;;;;;;;;18.11;55.81;100347.75;1081861;47;19971;-78
2023/09/05 04:21:01;;;;;;;;;;;;;;;18.09;55.86;100350.63;1082054;47;19975;-79
2023/09/05 04:22:05;;;;;;;;;;;;;;;18.08;56.01;100354.38;1082117;54;19959;-79
2023/09/05 04:23:05;;;;;;;;;;;;;;;18.09;56.08;100369.56;1082366;47;20838;-78
2023/09/05 04:24:09;;;;;;;;;;;;;;;18.15;56.04;100354.47;1082000;54;20053;-79
2023/09/05 04:25:09;;;;;;;;;;;;;;;18.19;55.80;100358.47;1082199;54;20038;-79
2023/09/05 04:26:14;;;;;;;;;;;;;;;18.21;55.94;100359.97;1082129;47;20054;-78
2023/09/05 04:27:15;;;;;;;;;;;;;;;18.23;55.54;100363.31;1082477;47;20000;-78
2023/09/05 04:28:18;;;;;;;;;;;;;;;18.24;55.41;100356.88;1082453;54;19947;-79
2023/09/05 04:29:19;;;;;;;;;;;;;;;18.28;55.65;100361.91;1082225;54;19970;-79
2023/09/05 04:30:22;;;;;;;;;;;;;;;18.32;55.30;100365.94;1082309;54;19998;-78
2023/09/05 04:31:25;;;;;;;;;;;;;;;18.32;55.45;100360.53;1082539;47;19950;-79
2023/09/05 04:32:30;;;;;;;;;;;;;;;18.32;55.41;100363.25;1082215;47;19947;-79
2023/09/05 04:33:32;;;;;;;;;;;;;;;18.35;55.33;100362.84;1082296;47;20193;-79
2023/09/05 04:34:35;;;;;;;;;;;;;;;18.28;56.26;100361.91;1082342;47;19957;-79
2023/09/05 04:35:36;;;;;;;;;;;;;;;18.23;56.89;100366.00;1082089;47;19973;-79
2023/09/05 04:36:40;;;;;;;;;;;;;;;18.24;56.23;100375.81;1082404;54;19958;-79
2023/09/05 04:37:40;;;;;;;;;;;;;;;18.22;56.75;100361.66;1082377;46;19950;-79
2023/09/05 04:38:48;;;;;;;;;;;;;;;18.18;56.52;100367.63;1082389;54;20836;-79
2023/09/05 04:39:49;;;;;;;;;;;;;;;18.18;56.47;100368.44;1082403;54;19977;-79
2023/09/05 04:40:50;;;;;;;;;;;;;;;18.17;56.92;100371.34;1082653;39;20460;-79
2023/09/05 04:41:53;;;;;;;;;;;;;;;18.19;56.29;100375.56;1082333;47;19958;-79
2023/09/05 04:42:53;;;;;;;;;;;;;;;18.17;56.73;100363.25;1082163;54;19946;-79
2023/09/05 04:43:54;;;;;;;;;;;;;;;18.19;56.59;100372.84;1082222;54;19967;-79
2023/09/05 04:44:57;;;;;;;;;;;;;;;18.16;56.74;100369.69;1083433;39;20331;-78
2023/09/05 04:45:58;;;;;;;;;;;;;;;18.17;56.65;100372.19;1082238;47;19974;-78
2023/09/05 04:47:13;;;;;;;;;;;;;;;18.17;56.58;100376.78;1082466;47;19971;-79
2023/09/05 04:48:19;;;;;;;;;;;;;;;18.15;56.59;100368.81;1082261;47;19951;-79
2023/09/05 04:49:19;;;;;;;;;;;;;;;18.16;56.65;100375.09;1082597;47;19946;-79
2023/09/05 04:50:23;;;;;;;;;;;;;;;18.16;57.30;100375.09;1082122;54;19950;-79
2023/09/05 04:51:23;;;;;;;;;;;;;;;18.17;56.79;100382.19;1082135;47;19974;-79
2023/09/05 04:52:28;;;;;;;;;;;;;;;18.14;56.92;100380.66;1082654;47;19978;-79
2023/09/05 04:53:28;;;;;;;;;;;;;;;18.16;56.71;100378.63;1082971;39;20365;-79
2023/09/05 04:54:31;;;;;;;;;;;;;;;18.13;56.70;100384.41;1082356;54;20081;-79
2023/09/05 04:55:32;;;;;;;;;;;;;;;18.12;57.32;100381.88;1082405;54;19971;-79
2023/09/05 04:56:35;;;;;;;;;;;;;;;18.12;56.87;100380.03;1082492;47;19994;-79
2023/09/05 04:57:36;;;;;;;;;;;;;;;18.13;57.10;100381.72;1082363;54;19990;-78
2023/09/05 04:58:39;;;;;;;;;;;;;;;18.13;56.88;100381.72;1082561;47;19993;-79
2023/09/05 04:59:40;;;;;;;;;;;;;;;18.13;57.02;100373.59;1082586;47;19975;-79
2023/09/05 05:00:44;;;;;;;;;;;;;;;18.14;56.93;100374.44;1081833;39;20915;-79
2023/09/05 05:01:44;;;;;;;;;;;;;;;18.12;57.21;100371.06;1082047;47;19975;-79
2023/09/05 05:02:47;;;;;;;;;;;;;;;18.11;57.01;100375.66;1082156;54;20478;-79
2023/09/05 05:03:50;;;;;;;;;;;;;;;18.08;57.65;100376.00;1082130;47;20732;-79
2023/09/05 05:04:54;;;;;;;;;;;;;;;18.11;57.34;100375.66;1082519;47;20509;-78
2023/09/05 05:05:54;;;;;;;;;;;;;;;18.09;57.51;100383.94;1082282;54;19974;-79
2023/09/05 05:06:58;;;;;;;;;;;;;;;18.09;57.55;100378.50;1082199;47;20007;-79
2023/09/05 05:07:58;;;;;;;;;;;;;;;18.09;57.44;100383.09;1081947;54;19975;-79
2023/09/05 05:09:01;;;;;;;;;;;;;;;18.12;57.44;100388.16;1083254;39;20839;-79
2023/09/05 05:10:03;;;;;;;;;;;;;;;18.13;57.10;100388.97;1082242;47;19971;-79
2023/09/05 05:11:06;;;;;;;;;;;;;;;18.14;57.25;100386.06;1082423;54;19970;-79
2023/09/05 05:12:08;;;;;;;;;;;;;;;18.09;57.71;100383.94;1082293;54;19946;-79
2023/09/05 05:13:11;;;;;;;;;;;;;;;17.99;57.96;100394.22;1082577;54;19946;-78
2023/09/05 05:14:12;;;;;;;;;;;;;;;18.02;58.08;100395.69;1082328;46;19946;-79
2023/09/05 05:15:15;;;;;;;;;;;;;;;18.02;58.10;100395.69;1082318;47;19973;-78
2023/09/05 05:16:15;;;;;;;;;;;;;;;18.01;57.76;100391.31;1082143;54;20026;-79
2023/09/05 05:17:18;;;;;;;;;;;;;;;18.01;57.89;100392.13;1082559;54;19962;-80
2023/09/05 05:18:19;;;;;;;;;;;;;;;18.05;57.18;100398.00;1082301;47;19950;-79
2023/09/05 05:19:25;;;;;;;;;;;;;;;18.08;57.17;100386.84;1082327;47;19950;-79
2023/09/05 05:20:26;;;;;;;;;;;;;;;18.09;57.34;100381.22;1082462;47;20532;-79